Aurora, New Mexico
Current Conditions -  °F | °C
As of 6:53 AM on Thursday 27 Nov 2014 (Local Time) from KLVS Reporting Station
Clear Clear  
Wind Chill: 33°   Ceiling: Unl
Heat Index: 38°   Visibility: 10mi
Dew Point: 10°   Wind: 7mph
Humidity: 32%   Direction: 330°NNW
Pressure: 30.4"   Gusts: NA
Location:  36.0243°N, 105.005°W
Report Text: KLVS 271353Z AUTO 33006KT 10SM CLR 03/M12 A3040 RMK AO2 SLP266 T00331122
Loading
Personal Weather Stations






























Interactive Weather Map New forecast layout! Learn more

10-Day Weather Forecast

Advertisements
Track Severe Weather on mobile